sensor_id;sensor_type;location;lat;lon;timestamp;temperature;humidity
3053;DHT22;1536;51.098;6.414;2023-02-01T00:00:32;7.70;99.90
3053;DHT22;1536;51.098;6.414;2023-02-01T00:03:00;7.60;99.90
3053;DHT22;1536;51.098;6.414;2023-02-01T00:05:26;7.70;99.90
3053;DHT22;1536;51.098;6.414;2023-02-01T00:10:36;7.70;99.90
3053;DHT22;1536;51.098;6.414;2023-02-01T00:13:03;7.60;99.90
3053;DHT22;1536;51.098;6.414;2023-02-01T00:15:29;7.60;99.90
3053;DHT22;1536;51.098;6.414;2023-02-01T00:17:56;7.60;99.90
3053;DHT22;1536;51.098;6.414;2023-02-01T00:20:23;7.60;99.90
3053;DHT22;1536;51.098;6.414;2023-02-01T00:22:50;7.50;99.90
3053;DHT22;1536;51.098;6.414;2023-02-01T00:25:18;7.50;99.90
3053;DHT22;1536;51.098;6.414;2023-02-01T00:27:48;7.40;99.90
3053;DHT22;1536;51.098;6.414;2023-02-01T00:30:16;7.40;99.90
3053;DHT22;1536;51.098;6.414;2023-02-01T00:32:43;7.40;99.90
3053;DHT22;1536;51.098;6.414;2023-02-01T00:35:09;7.30;99.90
3053;DHT22;1536;51.098;6.414;2023-02-01T00:37:36;7.30;99.90
3053;DHT22;1536;51.098;6.414;2023-02-01T00:40:03;7.20;99.90
3053;DHT22;1536;51.098;6.414;2023-02-01T00:42:32;7.20;99.90
3053;DHT22;1536;51.098;6.414;2023-02-01T00:44:58;7.20;99.90
3053;DHT22;1536;51.098;6.414;2023-02-01T00:47:25;7.10;99.90
3053;DHT22;1536;51.098;6.414;2023-02-01T00:49:52;7.10;99.90
3053;DHT22;1536;51.098;6.414;2023-02-01T00:52:18;7.10;99.90
3053;DHT22;1536;51.098;6.414;2023-02-01T00:54:45;7.10;99.90
3053;DHT22;1536;51.098;6.414;2023-02-01T00:57:12;7.10;99.90
3053;DHT22;1536;51.098;6.414;2023-02-01T00:59:40;7.10;99.90
3053;DHT22;1536;51.098;6.414;2023-02-01T01:02:07;7.00;99.90
3053;DHT22;1536;51.098;6.414;2023-02-01T01:04:48;7.00;99.90
3053;DHT22;1536;51.098;6.414;2023-02-01T01:07:15;7.00;99.90
3053;DHT22;1536;51.098;6.414;2023-02-01T01:09:42;7.00;99.90
3053;DHT22;1536;51.098;6.414;2023-02-01T01:12:08;7.00;99.90
3053;DHT22;1536;51.098;6.414;2023-02-01T01:14:35;6.90;99.90
3053;DHT22;1536;51.098;6.414;2023-02-01T01:17:03;6.90;99.90
3053;DHT22;1536;51.098;6.414;2023-02-01T01:19:30;6.90;99.90
3053;DHT22;1536;51.098;6.414;2023-02-01T01:21:57;6.80;99.90
3053;DHT22;1536;51.098;6.414;2023-02-01T01:24:24;6.90;99.90
3053;DHT22;1536;51.098;6.414;2023-02-01T01:26:50;6.80;99.90
3053;DHT22;1536;51.098;6.414;2023-02-01T01:29:17;6.80;99.90
3053;DHT22;1536;51.098;6.414;2023-02-01T01:31:44;6.80;99.90
3053;DHT22;1536;51.098;6.414;2023-02-01T01:34:12;6.80;99.90
3053;DHT22;1536;51.098;6.414;2023-02-01T01:36:39;6.70;99.90
3053;DHT22;1536;51.098;6.414;2023-02-01T01:39:05;6.70;99.90
3053;DHT22;1536;51.098;6.414;2023-02-01T01:41:33;6.70;99.90
3053;DHT22;1536;51.098;6.414;2023-02-01T01:44:01;6.70;99.90
3053;DHT22;1536;51.098;6.414;2023-02-01T01:46:30;6.60;99.90
3053;DHT22;1536;51.098;6.414;2023-02-01T01:49:02;6.70;99.90
3053;DHT22;1536;51.098;6.414;2023-02-01T01:51:35;6.70;99.90
3053;DHT22;1536;51.098;6.414;2023-02-01T01:54:06;6.70;99.90
3053;DHT22;1536;51.098;6.414;2023-02-01T01:56:35;6.70;99.90
3053;DHT22;1536;51.098;6.414;2023-02-01T01:59:02;6.70;99.90
3053;DHT22;1536;51.098;6.414;2023-02-01T02:01:31;6.70;99.90
3053;DHT22;1536;51.098;6.414;2023-02-01T02:03:59;6.80;99.90
3053;DHT22;1536;51.098;6.414;2023-02-01T02:06:41;6.80;99.90
3053;DHT22;1536;51.098;6.414;2023-02-01T02:09:11;6.80;99.90
3053;DHT22;1536;51.098;6.414;2023-02-01T02:11:38;6.90;99.90
3053;DHT22;1536;51.098;6.414;2023-02-01T02:14:07;6.80;99.90
3053;DHT22;1536;51.098;6.414;2023-02-01T02:17:01;6.90;99.90
3053;DHT22;1536;51.098;6.414;2023-02-01T02:19:55;6.90;99.90
3053;DHT22;1536;51.098;6.414;2023-02-01T02:22:47;6.90;99.90
3053;DHT22;1536;51.098;6.414;2023-02-01T02:25:46;6.90;99.90
3053;DHT22;1536;51.098;6.414;2023-02-01T02:28:40;6.90;99.90
3053;DHT22;1536;51.098;6.414;2023-02-01T02:31:27;6.90;99.90
3053;DHT22;1536;51.098;6.414;2023-02-01T02:34:04;6.90;99.90
3053;DHT22;1536;51.098;6.414;2023-02-01T02:36:39;6.90;99.90
3053;DHT22;1536;51.098;6.414;2023-02-01T02:39:17;6.90;99.90
3053;DHT22;1536;51.098;6.414;2023-02-01T02:41:53;6.90;99.90
3053;DHT22;1536;51.098;6.414;2023-02-01T02:44:45;6.90;99.90
3053;DHT22;1536;51.098;6.414;2023-02-01T02:47:36;6.90;99.90
3053;DHT22;1536;51.098;6.414;2023-02-01T02:50:13;6.90;99.90
3053;DHT22;1536;51.098;6.414;2023-02-01T02:53:02;7.00;99.90
3053;DHT22;1536;51.098;6.414;2023-02-01T02:55:49;7.00;99.90
3053;DHT22;1536;51.098;6.414;2023-02-01T02:58:17;7.00;99.90
3053;DHT22;1536;51.098;6.414;2023-02-01T03:01:03;7.00;99.90
3053;DHT22;1536;51.098;6.414;2023-02-01T03:03:48;7.00;99.90
3053;DHT22;1536;51.098;6.414;2023-02-01T03:06:36;7.00;99.90
3053;DHT22;1536;51.098;6.414;2023-02-01T03:09:09;7.00;99.90
3053;DHT22;1536;51.098;6.414;2023-02-01T03:11:39;7.00;99.90
3053;DHT22;1536;51.098;6.414;2023-02-01T03:14:26;7.00;99.90
3053;DHT22;1536;51.098;6.414;2023-02-01T03:16:59;7.00;99.90
3053;DHT22;1536;51.098;6.414;2023-02-01T03:19:31;7.00;99.90
3053;DHT22;1536;51.098;6.414;2023-02-01T03:22:03;7.00;99.90
3053;DHT22;1536;51.098;6.414;2023-02-01T03:24:34;7.00;99.90
3053;DHT22;1536;51.098;6.414;2023-02-01T03:27:07;7.00;99.90
3053;DHT22;1536;51.098;6.414;2023-02-01T03:29:40;7.00;99.90
3053;DHT22;1536;51.098;6.414;2023-02-01T03:32:08;6.90;99.90
3053;DHT22;1536;51.098;6.414;2023-02-01T03:34:36;6.90;99.90
3053;DHT22;1536;51.098;6.414;2023-02-01T03:37:08;6.90;99.90
3053;DHT22;1536;51.098;6.414;2023-02-01T03:39:38;6.90;99.90
3053;DHT22;1536;51.098;6.414;2023-02-01T03:42:10;7.00;99.90
3053;DHT22;1536;51.098;6.414;2023-02-01T03:44:44;7.00;99.90
3053;DHT22;1536;51.098;6.414;2023-02-01T03:47:15;7.00;99.90
3053;DHT22;1536;51.098;6.414;2023-02-01T03:49:47;6.90;99.90
3053;DHT22;1536;51.098;6.414;2023-02-01T03:52:20;7.00;99.90
3053;DHT22;1536;51.098;6.414;2023-02-01T03:54:49;7.00;99.90
3053;DHT22;1536;51.098;6.414;2023-02-01T03:57:21;7.00;99.90
3053;DHT22;1536;51.098;6.414;2023-02-01T03:59:50;7.00;99.90
3053;DHT22;1536;51.098;6.414;2023-02-01T04:02:16;7.00;99.90
3053;DHT22;1536;51.098;6.414;2023-02-01T04:04:43;7.00;99.90
3053;DHT22;1536;51.098;6.414;2023-02-01T04:07:10;7.00;99.90
3053;DHT22;1536;51.098;6.414;2023-02-01T04:09:38;7.00;99.90
3053;DHT22;1536;51.098;6.414;2023-02-01T04:12:06;7.00;99.90
3053;DHT22;1536;51.098;6.414;2023-02-01T04:14:33;7.00;99.90
3053;DHT22;1536;51.098;6.414;2023-02-01T04:16:59;7.00;99.90
3053;DHT22;1536;51.098;6.414;2023-02-01T04:19:26;7.00;99.90
3053;DHT22;1536;51.098;6.414;2023-02-01T04:21:53;7.00;99.90
3053;DHT22;1536;51.098;6.414;2023-02-01T04:24:20;6.90;99.90
3053;DHT22;1536;51.098;6.414;2023-02-01T04:26:48;6.90;99.90
3053;DHT22;1536;51.098;6.414;2023-02-01T04:29:15;6.90;99.90
3053;DHT22;1536;51.098;6.414;2023-02-01T04:31:41;6.90;99.90
3053;DHT22;1536;51.098;6.414;2023-02-01T04:34:08;6.80;99.90
3053;DHT22;1536;51.098;6.414;2023-02-01T04:36:35;6.80;99.90
3053;DHT22;1536;51.098;6.414;2023-02-01T04:39:01;6.80;99.90
3053;DHT22;1536;51.098;6.414;2023-02-01T04:41:28;6.80;99.90
3053;DHT22;1536;51.098;6.414;2023-02-01T04:43:56;6.80;99.90
3053;DHT22;1536;51.098;6.414;2023-02-01T04:46:23;6.70;99.90
3053;DHT22;1536;51.098;6.414;2023-02-01T04:48:50;6.70;99.90
3053;DHT22;1536;51.098;6.414;2023-02-01T04:51:17;6.70;99.90
3053;DHT22;1536;51.098;6.414;2023-02-01T04:53:43;6.70;99.90
3053;DHT22;1536;51.098;6.414;2023-02-01T04:56:10;6.70;99.90
3053;DHT22;1536;51.098;6.414;2023-02-01T04:58:37;6.70;99.90
3053;DHT22;1536;51.098;6.414;2023-02-01T05:01:05;6.70;99.90
3053;DHT22;1536;51.098;6.414;2023-02-01T05:03:34;6.70;99.90
3053;DHT22;1536;51.098;6.414;2023-02-01T05:06:01;6.60;99.90
3053;DHT22;1536;51.098;6.414;2023-02-01T05:08:29;6.60;99.90
3053;DHT22;1536;51.098;6.414;2023-02-01T05:10:56;6.60;99.90
3053;DHT22;1536;51.098;6.414;2023-02-01T05:13:24;6.60;99.90
3053;DHT22;1536;51.098;6.414;2023-02-01T05:16:10;6.60;99.90
3053;DHT22;1536;51.098;6.414;2023-02-01T05:18:36;6.60;99.90
3053;DHT22;1536;51.098;6.414;2023-02-01T05:21:03;6.60;99.90
3053;DHT22;1536;51.098;6.414;2023-02-01T05:23:30;6.60;99.90
3053;DHT22;1536;51.098;6.414;2023-02-01T05:26:00;6.50;99.90
3053;DHT22;1536;51.098;6.414;2023-02-01T05:28:28;6.50;99.90
3053;DHT22;1536;51.098;6.414;2023-02-01T05:30:54;6.50;99.90
3053;DHT22;1536;51.098;6.414;2023-02-01T05:33:22;6.50;99.90
3053;DHT22;1536;51.098;6.414;2023-02-01T05:35:49;6.50;99.90
3053;DHT22;1536;51.098;6.414;2023-02-01T05:38:16;6.50;99.90
3053;DHT22;1536;51.098;6.414;2023-02-01T05:40:43;6.50;99.90
3053;DHT22;1536;51.098;6.414;2023-02-01T05:43:15;6.50;99.90
3053;DHT22;1536;51.098;6.414;2023-02-01T05:45:42;6.50;99.90
3053;DHT22;1536;51.098;6.414;2023-02-01T05:48:08;6.50;99.90
3053;DHT22;1536;51.098;6.414;2023-02-01T05:50:36;6.50;99.90
3053;DHT22;1536;51.098;6.414;2023-02-01T05:53:03;6.50;99.90
3053;DHT22;1536;51.098;6.414;2023-02-01T05:55:30;6.50;99.90
3053;DHT22;1536;51.098;6.414;2023-02-01T05:57:56;6.40;99.90
3053;DHT22;1536;51.098;6.414;2023-02-01T06:00:24;6.40;99.90
3053;DHT22;1536;51.098;6.414;2023-02-01T06:02:50;6.40;99.90
3053;DHT22;1536;51.098;6.414;2023-02-01T06:05:17;6.40;99.90
3053;DHT22;1536;51.098;6.414;2023-02-01T06:07:45;6.40;99.90
3053;DHT22;1536;51.098;6.414;2023-02-01T06:10:12;6.40;99.90
3053;DHT22;1536;51.098;6.414;2023-02-01T06:12:39;6.40;99.90
3053;DHT22;1536;51.098;6.414;2023-02-01T06:15:07;6.40;99.90
3053;DHT22;1536;51.098;6.414;2023-02-01T06:17:33;6.40;99.90
3053;DHT22;1536;51.098;6.414;2023-02-01T06:20:00;6.30;99.90
3053;DHT22;1536;51.098;6.414;2023-02-01T06:22:27;6.30;99.90
3053;DHT22;1536;51.098;6.414;2023-02-01T06:24:55;6.30;99.90
3053;DHT22;1536;51.098;6.414;2023-02-01T06:27:23;6.30;99.90
3053;DHT22;1536;51.098;6.414;2023-02-01T06:29:50;6.40;99.90
3053;DHT22;1536;51.098;6.414;2023-02-01T06:32:17;6.30;99.90
3053;DHT22;1536;51.098;6.414;2023-02-01T06:34:44;6.30;99.90
3053;DHT22;1536;51.098;6.414;2023-02-01T06:37:10;6.30;99.90
3053;DHT22;1536;51.098;6.414;2023-02-01T06:39:38;6.30;99.90
3053;DHT22;1536;51.098;6.414;2023-02-01T06:42:06;6.30;99.90
3053;DHT22;1536;51.098;6.414;2023-02-01T06:44:33;6.40;99.90
3053;DHT22;1536;51.098;6.414;2023-02-01T06:47:00;6.30;99.90
3053;DHT22;1536;51.098;6.414;2023-02-01T06:49:26;6.40;99.90
3053;DHT22;1536;51.098;6.414;2023-02-01T06:51:53;6.40;99.90
3053;DHT22;1536;51.098;6.414;2023-02-01T06:54:20;6.40;99.90
3053;DHT22;1536;51.098;6.414;2023-02-01T06:56:47;6.40;99.90
3053;DHT22;1536;51.098;6.414;2023-02-01T06:59:15;6.40;99.90
3053;DHT22;1536;51.098;6.414;2023-02-01T07:01:41;6.50;99.90
3053;DHT22;1536;51.098;6.414;2023-02-01T07:04:09;6.50;99.90
3053;DHT22;1536;51.098;6.414;2023-02-01T07:06:36;6.50;99.90
3053;DHT22;1536;51.098;6.414;2023-02-01T07:09:03;6.50;99.90
3053;DHT22;1536;51.098;6.414;2023-02-01T07:11:30;6.50;99.90
3053;DHT22;1536;51.098;6.414;2023-02-01T07:13:57;6.50;99.90
3053;DHT22;1536;51.098;6.414;2023-02-01T07:16:26;6.50;99.90
3053;DHT22;1536;51.098;6.414;2023-02-01T07:18:53;6.50;99.90
3053;DHT22;1536;51.098;6.414;2023-02-01T07:21:19;6.40;99.90
3053;DHT22;1536;51.098;6.414;2023-02-01T07:23:48;6.50;99.90
3053;DHT22;1536;51.098;6.414;2023-02-01T07:26:15;6.50;99.90
3053;DHT22;1536;51.098;6.414;2023-02-01T07:28:42;6.50;99.90
3053;DHT22;1536;51.098;6.414;2023-02-01T07:31:10;6.60;99.90
3053;DHT22;1536;51.098;6.414;2023-02-01T07:33:38;6.60;99.90
3053;DHT22;1536;51.098;6.414;2023-02-01T07:36:07;6.60;99.90
3053;DHT22;1536;51.098;6.414;2023-02-01T07:38:34;6.60;99.90
3053;DHT22;1536;51.098;6.414;2023-02-01T07:41:02;6.60;99.90
3053;DHT22;1536;51.098;6.414;2023-02-01T07:43:30;6.70;99.90
3053;DHT22;1536;51.098;6.414;2023-02-01T07:45:57;6.70;99.90
3053;DHT22;1536;51.098;6.414;2023-02-01T07:48:25;6.70;99.90
3053;DHT22;1536;51.098;6.414;2023-02-01T07:50:58;6.70;99.90
3053;DHT22;1536;51.098;6.414;2023-02-01T07:53:26;6.80;99.90
3053;DHT22;1536;51.098;6.414;2023-02-01T07:55:52;6.80;99.90
3053;DHT22;1536;51.098;6.414;2023-02-01T07:58:21;6.80;99.90
3053;DHT22;1536;51.098;6.414;2023-02-01T08:00:48;6.80;99.90
3053;DHT22;1536;51.098;6.414;2023-02-01T08:03:32;6.80;99.90
3053;DHT22;1536;51.098;6.414;2023-02-01T08:06:00;6.80;99.90
3053;DHT22;1536;51.098;6.414;2023-02-01T08:08:27;6.80;99.90
3053;DHT22;1536;51.098;6.414;2023-02-01T08:10:57;6.80;99.90
3053;DHT22;1536;51.098;6.414;2023-02-01T08:13:24;6.90;99.90
3053;DHT22;1536;51.098;6.414;2023-02-01T08:15:52;6.90;99.90
3053;DHT22;1536;51.098;6.414;2023-02-01T08:18:19;6.80;99.90
3053;DHT22;1536;51.098;6.414;2023-02-01T08:20:46;6.80;99.90
3053;DHT22;1536;51.098;6.414;2023-02-01T08:23:14;6.80;99.90
3053;DHT22;1536;51.098;6.414;2023-02-01T08:25:41;6.80;99.90
3053;DHT22;1536;51.098;6.414;2023-02-01T08:28:08;6.90;99.90
3053;DHT22;1536;51.098;6.414;2023-02-01T08:30:36;6.80;99.90
3053;DHT22;1536;51.098;6.414;2023-02-01T08:33:04;6.90;99.90
3053;DHT22;1536;51.098;6.414;2023-02-01T08:35:32;6.90;99.90
3053;DHT22;1536;51.098;6.414;2023-02-01T08:37:59;6.90;99.90
3053;DHT22;1536;51.098;6.414;2023-02-01T08:40:27;6.90;99.90
3053;DHT22;1536;51.098;6.414;2023-02-01T08:42:54;6.90;99.90
3053;DHT22;1536;51.098;6.414;2023-02-01T08:45:23;7.00;99.90
3053;DHT22;1536;51.098;6.414;2023-02-01T08:47:50;7.00;99.90
3053;DHT22;1536;51.098;6.414;2023-02-01T08:50:17;7.00;99.90
3053;DHT22;1536;51.098;6.414;2023-02-01T08:52:44;7.10;99.90
3053;DHT22;1536;51.098;6.414;2023-02-01T08:55:12;7.10;99.90
3053;DHT22;1536;51.098;6.414;2023-02-01T08:57:40;7.10;99.90
3053;DHT22;1536;51.098;6.414;2023-02-01T09:00:09;7.10;99.90
3053;DHT22;1536;51.098;6.414;2023-02-01T09:02:37;7.10;99.90
3053;DHT22;1536;51.098;6.414;2023-02-01T09:05:05;7.10;99.90
3053;DHT22;1536;51.098;6.414;2023-02-01T09:07:32;7.20;99.90
3053;DHT22;1536;51.098;6.414;2023-02-01T09:09:59;7.20;99.90
3053;DHT22;1536;51.098;6.414;2023-02-01T09:12:27;7.30;99.90
3053;DHT22;1536;51.098;6.414;2023-02-01T09:14:55;7.30;99.90
3053;DHT22;1536;51.098;6.414;2023-02-01T09:17:23;7.30;99.90
3053;DHT22;1536;51.098;6.414;2023-02-01T09:19:50;7.30;99.90
3053;DHT22;1536;51.098;6.414;2023-02-01T09:22:17;7.30;99.90
3053;DHT22;1536;51.098;6.414;2023-02-01T09:24:44;7.30;99.90
3053;DHT22;1536;51.098;6.414;2023-02-01T09:27:11;7.40;99.90
3053;DHT22;1536;51.098;6.414;2023-02-01T09:29:37;7.40;99.90
3053;DHT22;1536;51.098;6.414;2023-02-01T09:32:06;7.40;99.90
3053;DHT22;1536;51.098;6.414;2023-02-01T09:34:33;7.40;99.90
3053;DHT22;1536;51.098;6.414;2023-02-01T09:36:59;7.50;99.90
3053;DHT22;1536;51.098;6.414;2023-02-01T09:39:27;7.50;99.90
3053;DHT22;1536;51.098;6.414;2023-02-01T09:42:02;7.50;99.90
3053;DHT22;1536;51.098;6.414;2023-02-01T09:44:57;7.60;99.90
3053;DHT22;1536;51.098;6.414;2023-02-01T09:47:27;7.60;99.90
3053;DHT22;1536;51.098;6.414;2023-02-01T09:49:59;7.60;99.90
3053;DHT22;1536;51.098;6.414;2023-02-01T09:52:32;7.60;99.90
3053;DHT22;1536;51.098;6.414;2023-02-01T09:55:03;7.60;99.90
3053;DHT22;1536;51.098;6.414;2023-02-01T09:57:40;7.60;99.90
3053;DHT22;1536;51.098;6.414;2023-02-01T10:00:16;7.60;99.90
3053;DHT22;1536;51.098;6.414;2023-02-01T10:02:45;7.60;99.90
3053;DHT22;1536;51.098;6.414;2023-02-01T10:05:14;7.60;99.90
3053;DHT22;1536;51.098;6.414;2023-02-01T10:07:49;7.60;99.90
3053;DHT22;1536;51.098;6.414;2023-02-01T10:10:23;7.70;99.90
3053;DHT22;1536;51.098;6.414;2023-02-01T10:13:18;7.80;99.90
3053;DHT22;1536;51.098;6.414;2023-02-01T10:15:57;7.80;99.90
3053;DHT22;1536;51.098;6.414;2023-02-01T10:18:42;7.90;99.90
3053;DHT22;1536;51.098;6.414;2023-02-01T10:21:21;7.90;99.90
3053;DHT22;1536;51.098;6.414;2023-02-01T10:24:00;7.90;99.90
3053;DHT22;1536;51.098;6.414;2023-02-01T10:26:32;7.90;99.90
3053;DHT22;1536;51.098;6.414;2023-02-01T10:29:02;7.90;99.90
3053;DHT22;1536;51.098;6.414;2023-02-01T10:31:31;8.00;99.90
3053;DHT22;1536;51.098;6.414;2023-02-01T10:34:01;8.00;99.90
3053;DHT22;1536;51.098;6.414;2023-02-01T10:36:34;8.00;99.90
3053;DHT22;1536;51.098;6.414;2023-02-01T10:39:03;8.10;99.90
3053;DHT22;1536;51.098;6.414;2023-02-01T10:41:35;8.20;99.90
3053;DHT22;1536;51.098;6.414;2023-02-01T10:44:04;8.20;99.90
3053;DHT22;1536;51.098;6.414;2023-02-01T10:46:34;8.30;99.90
3053;DHT22;1536;51.098;6.414;2023-02-01T10:49:03;8.40;99.90
3053;DHT22;1536;51.098;6.414;2023-02-01T10:51:41;8.40;99.90
3053;DHT22;1536;51.098;6.414;2023-02-01T10:54:19;8.50;99.90
3053;DHT22;1536;51.098;6.414;2023-02-01T10:56:46;8.50;99.90
3053;DHT22;1536;51.098;6.414;2023-02-01T10:59:17;8.60;99.90
3053;DHT22;1536;51.098;6.414;2023-02-01T11:01:46;8.60;99.90
3053;DHT22;1536;51.098;6.414;2023-02-01T11:04:15;8.60;99.90
3053;DHT22;1536;51.098;6.414;2023-02-01T11:06:44;8.60;99.90
3053;DHT22;1536;51.098;6.414;2023-02-01T11:09:17;8.70;99.90
3053;DHT22;1536;51.098;6.414;2023-02-01T11:11:59;8.70;99.90
3053;DHT22;1536;51.098;6.414;2023-02-01T11:14:38;8.70;99.90
3053;DHT22;1536;51.098;6.414;2023-02-01T11:17:21;8.70;99.90
3053;DHT22;1536;51.098;6.414;2023-02-01T11:19:57;8.80;99.90
3053;DHT22;1536;51.098;6.414;2023-02-01T11:22:25;8.80;99.90
3053;DHT22;1536;51.098;6.414;2023-02-01T11:24:52;8.90;99.90
3053;DHT22;1536;51.098;6.414;2023-02-01T11:27:22;8.90;99.90
3053;DHT22;1536;51.098;6.414;2023-02-01T11:29:51;9.00;99.90
3053;DHT22;1536;51.098;6.414;2023-02-01T11:32:20;9.10;99.90
3053;DHT22;1536;51.098;6.414;2023-02-01T11:34:52;9.10;99.90
3053;DHT22;1536;51.098;6.414;2023-02-01T11:37:23;9.20;99.90
3053;DHT22;1536;51.098;6.414;2023-02-01T11:39:55;9.20;99.90
3053;DHT22;1536;51.098;6.414;2023-02-01T11:42:23;9.20;99.90
3053;DHT22;1536;51.098;6.414;2023-02-01T11:44:50;9.20;99.90
3053;DHT22;1536;51.098;6.414;2023-02-01T11:47:24;9.20;99.90
3053;DHT22;1536;51.098;6.414;2023-02-01T11:49:53;9.20;99.90
3053;DHT22;1536;51.098;6.414;2023-02-01T11:52:45;9.10;99.90
3053;DHT22;1536;51.098;6.414;2023-02-01T11:58:26;9.10;99.90
3053;DHT22;1536;51.098;6.414;2023-02-01T12:01:07;9.20;99.90
3053;DHT22;1536;51.098;6.414;2023-02-01T12:04:11;9.20;99.90
3053;DHT22;1536;51.098;6.414;2023-02-01T12:06:47;9.20;99.90
3053;DHT22;1536;51.098;6.414;2023-02-01T12:09:34;9.10;99.90
3053;DHT22;1536;51.098;6.414;2023-02-01T12:12:10;9.10;99.90
3053;DHT22;1536;51.098;6.414;2023-02-01T12:14:53;9.10;99.90
3053;DHT22;1536;51.098;6.414;2023-02-01T12:17:42;9.10;99.90
3053;DHT22;1536;51.098;6.414;2023-02-01T12:20:23;9.10;99.90
3053;DHT22;1536;51.098;6.414;2023-02-01T12:23:02;9.10;99.90
3053;DHT22;1536;51.098;6.414;2023-02-01T12:25:55;9.20;99.90
3053;DHT22;1536;51.098;6.414;2023-02-01T12:28:40;9.10;99.90
3053;DHT22;1536;51.098;6.414;2023-02-01T12:31:24;9.10;99.90
3053;DHT22;1536;51.098;6.414;2023-02-01T12:34:11;9.10;99.90
3053;DHT22;1536;51.098;6.414;2023-02-01T12:36:46;9.00;99.90
3053;DHT22;1536;51.098;6.414;2023-02-01T12:39:23;9.00;99.90
3053;DHT22;1536;51.098;6.414;2023-02-01T12:41:57;9.00;99.90
3053;DHT22;1536;51.098;6.414;2023-02-01T12:44:41;9.00;99.90
3053;DHT22;1536;51.098;6.414;2023-02-01T12:47:18;8.90;99.90
3053;DHT22;1536;51.098;6.414;2023-02-01T12:49:55;8.90;99.90
3053;DHT22;1536;51.098;6.414;2023-02-01T12:52:32;8.90;99.90
3053;DHT22;1536;51.098;6.414;2023-02-01T12:55:06;9.00;99.90
3053;DHT22;1536;51.098;6.414;2023-02-01T12:57:37;8.90;99.90
3053;DHT22;1536;51.098;6.414;2023-02-01T13:00:13;8.90;99.90
3053;DHT22;1536;51.098;6.414;2023-02-01T13:02:52;8.90;99.90
3053;DHT22;1536;51.098;6.414;2023-02-01T13:05:24;8.90;99.90
3053;DHT22;1536;51.098;6.414;2023-02-01T13:07:58;8.90;99.90
3053;DHT22;1536;51.098;6.414;2023-02-01T13:10:32;8.90;99.90
3053;DHT22;1536;51.098;6.414;2023-02-01T13:13:07;9.00;99.90
3053;DHT22;1536;51.098;6.414;2023-02-01T13:15:40;8.90;99.90
3053;DHT22;1536;51.098;6.414;2023-02-01T13:18:13;9.00;99.90
3053;DHT22;1536;51.098;6.414;2023-02-01T13:20:47;9.00;99.90
3053;DHT22;1536;51.098;6.414;2023-02-01T13:23:22;9.00;99.90
3053;DHT22;1536;51.098;6.414;2023-02-01T13:25:52;8.90;99.90
3053;DHT22;1536;51.098;6.414;2023-02-01T13:28:25;9.00;99.90
3053;DHT22;1536;51.098;6.414;2023-02-01T13:31:05;9.00;99.90
3053;DHT22;1536;51.098;6.414;2023-02-01T13:33:47;9.00;99.90
3053;DHT22;1536;51.098;6.414;2023-02-01T13:36:34;8.90;99.90
3053;DHT22;1536;51.098;6.414;2023-02-01T13:39:28;8.90;99.90
3053;DHT22;1536;51.098;6.414;2023-02-01T13:42:02;9.00;99.90
3053;DHT22;1536;51.098;6.414;2023-02-01T13:44:33;9.00;99.90
3053;DHT22;1536;51.098;6.414;2023-02-01T13:47:09;9.00;99.90
3053;DHT22;1536;51.098;6.414;2023-02-01T13:49:39;8.90;99.90
3053;DHT22;1536;51.098;6.414;2023-02-01T13:52:24;9.00;99.90
3053;DHT22;1536;51.098;6.414;2023-02-01T13:55:01;9.00;99.90
3053;DHT22;1536;51.098;6.414;2023-02-01T13:57:37;9.00;99.90
3053;DHT22;1536;51.098;6.414;2023-02-01T14:00:23;9.00;99.90
3053;DHT22;1536;51.098;6.414;2023-02-01T14:03:09;9.00;99.90
3053;DHT22;1536;51.098;6.414;2023-02-01T14:08:42;9.10;99.90
3053;DHT22;1536;51.098;6.414;2023-02-01T14:11:31;9.10;99.90
3053;DHT22;1536;51.098;6.414;2023-02-01T14:23:30;9.10;99.90
3053;DHT22;1536;51.098;6.414;2023-02-01T14:26:14;9.10;99.90
3053;DHT22;1536;51.098;6.414;2023-02-01T14:29:00;9.10;99.90
3053;DHT22;1536;51.098;6.414;2023-02-01T14:31:52;9.10;99.90
3053;DHT22;1536;51.098;6.414;2023-02-01T14:34:24;9.10;99.90
3053;DHT22;1536;51.098;6.414;2023-02-01T14:36:56;9.10;99.90
3053;DHT22;1536;51.098;6.414;2023-02-01T14:39:32;9.10;99.90
3053;DHT22;1536;51.098;6.414;2023-02-01T14:42:03;9.10;99.90
3053;DHT22;1536;51.098;6.414;2023-02-01T14:44:33;9.20;99.90
3053;DHT22;1536;51.098;6.414;2023-02-01T14:49:55;9.20;99.90
3053;DHT22;1536;51.098;6.414;2023-02-01T14:52:37;9.20;99.90
3053;DHT22;1536;51.098;6.414;2023-02-01T14:55:13;9.20;99.90
3053;DHT22;1536;51.098;6.414;2023-02-01T14:57:43;9.10;99.90
3053;DHT22;1536;51.098;6.414;2023-02-01T15:00:23;9.20;99.90
3053;DHT22;1536;51.098;6.414;2023-02-01T15:02:52;9.10;99.90
3053;DHT22;1536;51.098;6.414;2023-02-01T15:05:25;9.10;99.90
3053;DHT22;1536;51.098;6.414;2023-02-01T15:07:55;9.10;99.90
3053;DHT22;1536;51.098;6.414;2023-02-01T15:10:25;9.10;99.90
3053;DHT22;1536;51.098;6.414;2023-02-01T15:12:52;9.10;99.90
3053;DHT22;1536;51.098;6.414;2023-02-01T15:15:21;9.10;99.90
3053;DHT22;1536;51.098;6.414;2023-02-01T15:17:50;9.00;99.90
3053;DHT22;1536;51.098;6.414;2023-02-01T15:20:19;9.00;99.90
3053;DHT22;1536;51.098;6.414;2023-02-01T15:22:55;9.00;99.90
3053;DHT22;1536;51.098;6.414;2023-02-01T15:25:26;9.00;99.90
3053;DHT22;1536;51.098;6.414;2023-02-01T15:27:53;9.00;99.90
3053;DHT22;1536;51.098;6.414;2023-02-01T15:30:21;9.00;99.90
3053;DHT22;1536;51.098;6.414;2023-02-01T15:32:50;9.00;99.90
3053;DHT22;1536;51.098;6.414;2023-02-01T15:35:38;9.00;99.90
3053;DHT22;1536;51.098;6.414;2023-02-01T15:38:34;9.00;99.90
3053;DHT22;1536;51.098;6.414;2023-02-01T15:41:05;9.00;99.90
3053;DHT22;1536;51.098;6.414;2023-02-01T15:43:35;9.00;99.90
3053;DHT22;1536;51.098;6.414;2023-02-01T15:46:08;9.00;99.90
3053;DHT22;1536;51.098;6.414;2023-02-01T15:48:38;9.00;99.90
3053;DHT22;1536;51.098;6.414;2023-02-01T15:51:06;9.00;99.90
3053;DHT22;1536;51.098;6.414;2023-02-01T15:53:38;9.00;99.90
3053;DHT22;1536;51.098;6.414;2023-02-01T15:56:06;9.00;99.90
3053;DHT22;1536;51.098;6.414;2023-02-01T15:58:34;9.00;99.90
3053;DHT22;1536;51.098;6.414;2023-02-01T16:01:04;9.00;99.90
3053;DHT22;1536;51.098;6.414;2023-02-01T16:03:37;9.00;99.90
3053;DHT22;1536;51.098;6.414;2023-02-01T16:06:08;9.00;99.90
3053;DHT22;1536;51.098;6.414;2023-02-01T16:08:35;9.00;99.90
3053;DHT22;1536;51.098;6.414;2023-02-01T16:11:22;9.00;99.90
3053;DHT22;1536;51.098;6.414;2023-02-01T16:13:49;8.90;99.90
3053;DHT22;1536;51.098;6.414;2023-02-01T16:16:16;8.90;99.90
3053;DHT22;1536;51.098;6.414;2023-02-01T16:18:43;8.90;99.90
3053;DHT22;1536;51.098;6.414;2023-02-01T16:21:10;8.90;99.90
3053;DHT22;1536;51.098;6.414;2023-02-01T16:23:37;8.90;99.90
3053;DHT22;1536;51.098;6.414;2023-02-01T16:26:06;8.90;99.90
3053;DHT22;1536;51.098;6.414;2023-02-01T16:28:37;8.90;99.90
3053;DHT22;1536;51.098;6.414;2023-02-01T16:31:04;8.90;99.90
3053;DHT22;1536;51.098;6.414;2023-02-01T16:33:33;8.90;99.90
3053;DHT22;1536;51.098;6.414;2023-02-01T16:36:00;8.90;99.90
3053;DHT22;1536;51.098;6.414;2023-02-01T16:38:29;8.80;99.90
3053;DHT22;1536;51.098;6.414;2023-02-01T16:40:56;8.80;99.90
3053;DHT22;1536;51.098;6.414;2023-02-01T16:43:25;8.90;99.90
3053;DHT22;1536;51.098;6.414;2023-02-01T16:45:59;8.80;99.90
3053;DHT22;1536;51.098;6.414;2023-02-01T16:48:29;8.90;99.90
3053;DHT22;1536;51.098;6.414;2023-02-01T16:50:59;8.80;99.90
3053;DHT22;1536;51.098;6.414;2023-02-01T16:53:29;8.90;99.90
3053;DHT22;1536;51.098;6.414;2023-02-01T16:55:56;8.90;99.90
3053;DHT22;1536;51.098;6.414;2023-02-01T16:58:24;8.80;99.90
3053;DHT22;1536;51.098;6.414;2023-02-01T17:00:54;8.80;99.90
3053;DHT22;1536;51.098;6.414;2023-02-01T17:03:23;8.80;99.90
3053;DHT22;1536;51.098;6.414;2023-02-01T17:05:51;8.80;99.90